createdAt,value
2019-04-06T00:02:58.283Z,45.50
2019-04-06T00:05:45.808Z,42.53
2019-04-06T00:08:33.527Z,44.90
2019-04-06T00:11:21.187Z,48.77
2019-04-06T00:13:49.609Z,46.90
2019-04-06T00:16:18.017Z,46.60
2019-04-06T00:19:05.765Z,47.00
2019-04-06T00:21:34.170Z,44.80
2019-04-06T00:24:02.568Z,52.00
2019-04-06T00:26:31.015Z,48.10
2019-04-06T00:28:59.408Z,45.93
2019-04-06T00:31:46.938Z,54.30
2019-04-06T00:36:49.459Z,47.83
2019-04-06T00:39:17.870Z,45.73
2019-04-06T00:41:46.266Z,41.40
2019-04-06T00:44:33.791Z,42.50
2019-04-06T00:47:02.186Z,41.90
2019-04-06T00:49:30.621Z,41.00
2019-04-06T00:51:59.022Z,42.20
2019-04-06T00:54:46.547Z,38.23
2019-04-06T00:57:14.941Z,35.67
2019-04-06T01:00:02.482Z,38.90
2019-04-06T01:02:42.842Z,35.20
2019-04-06T01:07:46.440Z,37.83
2019-04-06T01:10:54.769Z,36.83
2019-04-06T01:13:42.268Z,35.77
2019-04-06T01:16:29.794Z,33.47
2019-04-06T01:19:17.524Z,31.07
2019-04-06T01:21:45.933Z,28.97
2019-04-06T01:24:33.575Z,30.20
2019-04-06T01:27:21.102Z,30.00
2019-04-06T01:29:49.613Z,34.13
2019-04-06T01:32:19.647Z,36.70
2019-04-06T01:35:07.318Z,37.37
2019-04-06T01:37:54.818Z,37.10
2019-04-06T01:40:23.283Z,42.47
2019-04-06T01:42:51.628Z,40.03
2019-04-06T01:45:39.376Z,46.60
2019-04-06T01:48:07.780Z,52.10
2019-04-06T01:50:55.434Z,52.30
2019-04-06T01:53:23.837Z,52.80
2019-04-06T01:56:18.370Z,53.40
2019-04-06T01:58:41.477Z,54.50
2019-04-06T02:01:25.957Z,54.37
2019-04-06T02:04:13.607Z,51.40
2019-04-06T02:06:42.280Z,54.27
2019-04-06T02:09:10.688Z,58.77
2019-04-06T02:11:39.090Z,57.47
2019-04-06T02:14:26.748Z,57.50
2019-04-06T02:16:55.211Z,55.47
2019-04-06T02:19:42.932Z,56.87
2019-04-06T02:22:11.321Z,57.07
2019-04-06T02:24:58.840Z,61.43
2019-04-06T02:27:27.293Z,57.50
2019-04-06T02:30:34.056Z,56.63
2019-04-06T02:33:21.656Z,55.77
2019-04-06T02:36:09.174Z,55.77
2019-04-06T02:41:45.778Z,56.10
2019-04-06T02:44:33.294Z,56.00
2019-04-06T02:47:21.046Z,57.80
2019-04-06T02:49:49.440Z,57.77
2019-04-06T02:52:37.091Z,60.80
2019-04-06T02:55:45.415Z,55.27
2019-04-06T02:58:33.070Z,56.03
2019-04-06T03:01:20.587Z,55.20
2019-04-06T03:04:08.244Z,55.20
2019-04-06T03:06:36.653Z,56.47
2019-04-06T03:09:45.222Z,54.00
2019-04-06T03:12:32.753Z,56.97
2019-04-06T03:18:09.471Z,53.70
2019-04-06T03:20:57.115Z,50.50
2019-04-06T03:23:51.536Z,53.63
2019-04-06T03:26:14.788Z,55.13
2019-04-06T03:29:02.408Z,55.90
2019-04-06T03:31:30.774Z,52.93
2019-04-06T03:34:21.245Z,56.20
2019-04-06T03:36:48.793Z,56.90
2019-04-06T03:39:36.445Z,61.57
2019-04-06T03:42:04.860Z,62.07
2019-04-06T03:44:33.252Z,59.40
2019-04-06T03:47:21.043Z,60.57
2019-04-06T03:50:08.850Z,57.03
2019-04-06T03:52:56.508Z,57.43
2019-04-06T03:55:44.157Z,56.13
2019-04-06T03:58:12.690Z,58.93
2019-04-06T04:01:00.343Z,56.37
2019-04-06T04:03:47.868Z,54.37
2019-04-06T04:06:16.266Z,54.30
2019-04-06T04:08:44.680Z,55.97
2019-04-06T04:11:32.195Z,56.50
2019-04-06T04:14:19.855Z,56.80
2019-04-06T04:16:48.290Z,56.33
2019-04-06T04:19:35.911Z,53.60
2019-04-06T04:22:23.569Z,58.77
2019-04-06T04:24:51.971Z,55.13
2019-04-06T04:32:52.629Z,56.37
2019-04-06T04:35:40.183Z,51.83
2019-04-06T04:38:08.547Z,54.37
2019-04-06T04:40:56.196Z,54.50
2019-04-06T04:43:43.851Z,55.10
2019-04-06T04:46:12.256Z,51.20
2019-04-06T04:48:40.993Z,53.20
2019-04-06T04:53:57.177Z,54.67
2019-04-06T04:56:26.952Z,53.50
2019-04-06T04:59:14.613Z,54.80
2019-04-06T05:07:04.971Z,56.67
2019-04-06T05:09:52.716Z,56.90
2019-04-06T05:12:40.385Z,52.47
2019-04-06T05:15:47.374Z,50.23
2019-04-06T05:18:15.920Z,49.43
2019-04-06T05:20:45.900Z,53.03
2019-04-06T05:31:16.114Z,52.20
2019-04-06T05:34:03.777Z,48.53
2019-04-06T05:36:32.181Z,51.00
2019-04-06T05:39:19.871Z,51.50
2019-04-06T05:41:50.433Z,49.83
2019-04-06T05:44:18.498Z,49.50
2019-04-06T05:46:46.856Z,49.87
2019-04-06T05:49:15.288Z,47.83
2019-04-06T05:52:03.015Z,49.40
2019-04-06T05:54:31.445Z,47.10
2019-04-06T05:56:59.858Z,43.83
2019-04-06T05:59:47.396Z,43.80
2019-04-06T06:02:15.902Z,39.80
2019-04-06T06:04:44.347Z,39.77
2019-04-06T06:07:32.041Z,35.87
2019-04-06T06:10:00.488Z,39.63
2019-04-06T06:12:48.154Z,38.67
2019-04-06T06:18:11.342Z,38.90
2019-04-06T06:20:39.831Z,39.03
2019-04-06T06:23:08.258Z,37.43
2019-04-06T06:25:55.982Z,36.37
2019-04-06T06:30:58.618Z,39.17
2019-04-06T06:33:28.626Z,39.73
2019-04-06T06:36:18.050Z,41.80
2019-04-06T06:39:05.716Z,42.20
2019-04-06T06:41:34.300Z,42.90
2019-04-06T06:44:02.679Z,45.67
2019-04-06T06:46:50.234Z,45.70
2019-04-06T06:49:38.062Z,46.57
2019-04-06T06:52:06.481Z,45.40
2019-04-06T06:54:54.163Z,43.60
2019-04-06T06:57:22.785Z,45.20
2019-04-06T06:59:52.722Z,44.87
2019-04-06T07:02:40.416Z,41.37
2019-04-06T07:05:28.196Z,43.13
2019-04-06T07:07:56.635Z,41.47
2019-04-06T07:10:25.082Z,42.60
2019-04-06T07:12:53.519Z,42.33
2019-04-06T07:17:55.582Z,43.47
2019-04-06T07:20:24.042Z,42.83
2019-04-06T07:23:11.600Z,42.03
2019-04-06T07:25:40.118Z,42.93
2019-04-06T07:28:37.044Z,45.30
2019-04-06T07:31:17.125Z,41.95
2019-04-06T07:33:45.539Z,42.80
2019-04-06T07:36:13.998Z,43.03
2019-04-06T07:38:42.539Z,43.33
2019-04-06T07:41:12.572Z,41.83
2019-04-06T07:43:41.005Z,44.00
2019-04-06T07:51:37.563Z,43.57
2019-04-06T07:54:25.332Z,44.20
2019-04-06T07:56:53.746Z,45.00
2019-04-06T08:04:50.484Z,45.83
2019-04-06T08:07:38.038Z,43.10
2019-04-06T08:10:46.408Z,44.43
2019-04-06T08:13:33.946Z,44.93
2019-04-06T08:18:36.852Z,46.00
2019-04-06T08:21:24.635Z,43.47
2019-04-06T08:23:53.049Z,44.53
2019-04-06T08:26:40.643Z,44.73
2019-04-06T08:29:09.075Z,44.73
2019-04-06T08:31:37.546Z,44.17
2019-04-06T08:34:06.051Z,46.97
2019-04-06T08:36:53.763Z,43.77
2019-04-06T08:39:22.205Z,43.67
2019-04-06T08:41:50.654Z,46.90
2019-04-06T08:52:35.159Z,43.70
2019-04-06T08:55:43.494Z,43.20
2019-04-06T08:58:31.044Z,43.50
2019-04-06T09:01:18.843Z,45.20
2019-04-06T09:03:47.288Z,43.67
2019-04-06T09:06:15.714Z,40.57
2019-04-06T09:08:44.413Z,40.53
2019-04-06T09:11:33.422Z,41.17
2019-04-06T09:14:20.973Z,40.83
2019-04-06T09:16:49.407Z,40.30
2019-04-06T09:19:17.814Z,38.77
2019-04-06T09:22:05.642Z,38.43
2019-04-06T09:24:34.149Z,37.53
2019-04-06T09:27:02.701Z,40.93
2019-04-06T09:29:32.867Z,39.07
2019-04-06T09:32:01.365Z,39.17
2019-04-06T09:37:17.224Z,39.13
2019-04-06T09:39:45.794Z,38.67
2019-04-06T09:45:08.465Z,40.17
2019-04-06T09:50:31.296Z,40.43
2019-04-06T09:53:18.893Z,39.03
2019-04-06T10:01:39.825Z,39.40
2019-04-06T10:04:46.650Z,41.27
2019-04-06T10:07:34.465Z,41.67
2019-04-06T10:13:30.294Z,38.80
2019-04-06T10:16:18.146Z,39.90
2019-04-06T10:19:05.687Z,39.90
2019-04-06T10:21:53.260Z,39.77
2019-04-06T10:30:15.616Z,41.70
2019-04-06T10:33:03.190Z,40.90
2019-04-06T10:35:50.712Z,42.73
2019-04-06T10:38:57.536Z,39.77
2019-04-06T10:44:39.625Z,42.20
2019-04-06T10:50:21.886Z,36.27
2019-04-06T10:53:09.584Z,37.53
2019-04-06T10:55:57.165Z,37.80
2019-04-06T10:58:44.703Z,36.30
2019-04-06T11:01:32.333Z,35.77
2019-04-06T11:04:19.908Z,34.87
2019-04-06T11:07:07.624Z,34.93
2019-04-06T11:09:55.230Z,37.30
2019-04-06T11:12:42.799Z,34.13
2019-04-06T11:15:30.479Z,35.20
2019-04-06T11:18:18.296Z,32.37
2019-04-06T11:21:05.854Z,34.57
2019-04-06T11:23:53.555Z,34.30
2019-04-06T11:26:41.098Z,29.83
2019-04-06T11:29:28.642Z,26.23
2019-04-06T11:32:16.257Z,24.60
2019-04-06T11:35:03.814Z,22.80
2019-04-06T11:38:11.059Z,21.83
2019-04-06T11:41:17.889Z,22.33
2019-04-06T11:44:05.489Z,20.77
2019-04-06T11:46:53.177Z,24.17
2019-04-06T11:50:00.167Z,20.40
2019-04-06T11:58:17.819Z,18.97
2019-04-06T12:01:05.490Z,16.43
2019-04-06T12:04:12.385Z,18.90
2019-04-06T12:07:19.287Z,16.33
2019-04-06T12:10:06.839Z,15.63
2019-04-06T12:12:56.279Z,17.67
2019-04-06T12:18:33.026Z,17.90
2019-04-06T12:21:39.882Z,16.60
2019-04-06T12:24:27.493Z,15.43
2019-04-06T12:27:15.222Z,14.80
2019-04-06T12:30:02.877Z,13.87
2019-04-06T12:40:59.497Z,13.60
2019-04-06T12:44:06.440Z,12.73
2019-04-06T12:47:13.282Z,13.40
2019-04-06T12:52:40.273Z,11.97
2019-04-06T13:01:11.183Z,12.10
2019-04-06T13:06:53.370Z,11.90
2019-04-06T13:09:40.889Z,11.70
2019-04-06T13:12:28.563Z,10.90
2019-04-06T13:17:51.626Z,11.00
2019-04-06T13:20:39.318Z,11.03
2019-04-06T13:26:02.433Z,9.30
2019-04-06T13:28:50.227Z,9.13
2019-04-06T13:31:37.769Z,8.40
2019-04-06T13:34:25.551Z,9.77
2019-04-06T13:37:13.099Z,8.87
2019-04-06T13:40:00.642Z,8.20
2019-04-06T13:42:48.333Z,8.80
2019-04-06T13:48:31.274Z,9.30
2019-04-06T13:51:18.712Z,8.57
2019-04-06T13:54:06.569Z,9.83
2019-04-06T13:56:54.032Z,9.33
2019-04-06T14:00:00.880Z,8.67
2019-04-06T14:02:48.400Z,10.70
2019-04-06T14:05:35.920Z,9.47
2019-04-06T14:08:23.485Z,10.70
2019-04-06T14:14:05.669Z,9.83
2019-04-06T14:16:53.197Z,9.83
2019-04-06T14:19:40.715Z,9.27
2019-04-06T14:22:48.974Z,9.90
2019-04-06T14:25:36.929Z,10.10
2019-04-06T14:28:24.510Z,9.70
2019-04-06T14:31:12.085Z,9.80
2019-04-06T14:36:48.862Z,9.40
2019-04-06T14:42:15.686Z,9.40
2019-04-06T14:45:03.412Z,10.57
2019-04-06T14:47:51.354Z,10.37
2019-04-06T14:50:39.068Z,9.10
2019-04-06T14:53:27.110Z,11.40
2019-04-06T14:58:50.544Z,10.90
2019-04-06T15:01:42.369Z,10.30
2019-04-06T15:04:27.922Z,10.60
2019-04-06T15:07:15.661Z,10.40
2019-04-06T15:10:03.369Z,9.70
2019-04-06T15:12:51.133Z,11.33
2019-04-06T15:15:38.849Z,11.10
2019-04-06T15:18:26.524Z,10.20
2019-04-06T15:21:14.497Z,9.67
2019-04-06T15:24:02.497Z,9.00
2019-04-06T15:29:25.426Z,10.10
2019-04-06T15:32:13.077Z,9.50
2019-04-06T15:37:40.277Z,10.27
2019-04-06T15:43:06.806Z,9.70
2019-04-06T15:46:15.276Z,9.83
2019-04-06T15:49:02.929Z,9.63
2019-04-06T15:51:50.664Z,10.60
2019-04-06T15:54:38.170Z,9.70
2019-04-06T15:57:26.118Z,9.57
2019-04-06T16:00:13.587Z,11.27
2019-04-06T16:03:01.395Z,9.83
2019-04-06T16:05:49.037Z,9.50
2019-04-06T16:08:36.684Z,10.20
2019-04-06T16:11:24.435Z,9.60
2019-04-06T16:19:36.903Z,9.93
2019-04-06T16:25:00.177Z,9.67
2019-04-06T16:27:48.265Z,10.23
2019-04-06T16:30:56.751Z,14.33
2019-04-06T16:33:44.681Z,12.13
2019-04-06T16:41:43.204Z,10.67
2019-04-06T16:47:20.538Z,11.03
2019-04-06T16:50:08.236Z,10.80
2019-04-06T16:52:56.329Z,11.27
2019-04-06T17:03:51.406Z,10.90
2019-04-06T17:06:39.117Z,11.60
2019-04-06T17:09:47.629Z,11.30
2019-04-06T17:12:37.036Z,11.90
2019-04-06T17:15:45.786Z,10.23
2019-04-06T17:18:35.013Z,12.30
2019-04-06T17:23:58.352Z,12.30
2019-04-06T17:26:45.949Z,17.23
2019-04-06T17:29:33.954Z,19.80
2019-04-06T17:32:33.944Z,17.80
2019-04-06T17:34:59.232Z,13.50
2019-04-06T17:37:29.459Z,21.50
2019-04-06T17:40:15.028Z,16.30
2019-04-06T17:43:01.230Z,13.93
2019-04-06T17:45:47.342Z,14.77
2019-04-06T17:48:33.997Z,15.10
2019-04-06T17:51:10.168Z,17.07
2019-04-06T17:53:40.307Z,15.17
2019-04-06T17:56:19.179Z,15.00
2019-04-06T17:59:05.593Z,15.30
2019-04-06T18:01:38.474Z,15.63
2019-04-06T18:04:08.661Z,16.30
2019-04-06T18:06:41.686Z,15.83
2019-04-06T18:09:11.851Z,15.20
2019-04-06T18:11:59.546Z,14.80
2019-04-06T18:14:28.118Z,14.40
2019-04-06T18:16:57.060Z,14.50
2019-04-06T18:19:25.984Z,13.27
2019-04-06T18:21:54.651Z,12.17
2019-04-06T18:24:23.171Z,12.70
2019-04-06T18:26:51.928Z,11.97
2019-04-06T18:29:20.634Z,12.60
2019-04-06T18:31:56.340Z,12.73
2019-04-06T18:34:25.141Z,14.20
2019-04-06T18:36:58.137Z,14.33
2019-04-06T18:39:27.763Z,14.57
2019-04-06T18:41:56.447Z,14.63
2019-04-06T18:44:25.574Z,14.97
2019-04-06T18:46:54.166Z,16.80
2019-04-06T18:49:22.822Z,18.63
2019-04-06T18:51:51.762Z,21.93
2019-04-06T18:54:20.243Z,20.90
2019-04-06T18:56:48.832Z,24.20
2019-04-06T18:59:17.449Z,19.40
2019-04-06T19:01:45.975Z,20.27
2019-04-06T19:04:14.550Z,17.67
2019-04-06T19:06:43.201Z,19.60
2019-04-06T19:09:22.466Z,19.43
2019-04-06T19:11:52.861Z,21.33
2019-04-06T19:14:12.457Z,17.30
2019-04-06T19:16:41.092Z,17.83
2019-04-06T19:19:09.529Z,17.77
2019-04-06T19:21:38.028Z,19.43
2019-04-06T19:24:06.765Z,16.77
2019-04-06T19:26:37.414Z,17.07
2019-04-06T19:29:06.075Z,17.20
2019-04-06T19:31:34.548Z,15.00
2019-04-06T19:34:03.176Z,13.80
2019-04-06T19:36:31.704Z,14.80
2019-04-06T19:39:00.619Z,14.33
2019-04-06T19:41:29.157Z,14.03
2019-04-06T19:43:58.259Z,13.80
2019-04-06T19:46:27.132Z,14.03
2019-04-06T19:48:55.667Z,14.97
2019-04-06T19:51:24.220Z,14.33
2019-04-06T19:53:52.782Z,16.27
2019-04-06T19:56:21.269Z,15.67
2019-04-06T19:58:49.980Z,15.40
2019-04-06T20:01:19.085Z,15.23
2019-04-06T20:03:47.822Z,16.03
2019-04-06T20:06:16.640Z,15.97
2019-04-06T20:08:45.190Z,16.77
2019-04-06T20:11:13.734Z,16.00
2019-04-06T20:13:42.398Z,16.87
2019-04-06T20:16:10.951Z,16.20
2019-04-06T20:18:40.012Z,14.80
2019-04-06T20:21:08.923Z,15.50
2019-04-06T20:23:38.018Z,16.37
2019-04-06T20:26:06.635Z,16.13
2019-04-06T20:28:35.495Z,16.70
2019-04-06T20:31:04.053Z,15.40
2019-04-06T20:33:32.588Z,15.50
2019-04-06T20:36:01.143Z,15.80
2019-04-06T20:38:29.942Z,14.87
2019-04-06T20:40:58.498Z,15.93
2019-04-06T20:43:27.563Z,15.23
2019-04-06T20:45:56.584Z,15.83
2019-04-06T20:48:25.166Z,15.60
2019-04-06T20:50:54.076Z,14.67
2019-04-06T20:53:22.723Z,14.07
2019-04-06T20:55:51.289Z,14.87
2019-04-06T20:58:20.363Z,13.23
2019-04-06T21:00:49.144Z,14.33
2019-04-06T21:03:17.746Z,14.63
2019-04-06T21:05:46.533Z,13.50
2019-04-06T21:08:15.579Z,13.80
2019-04-06T21:10:44.088Z,14.93
2019-04-06T21:13:12.598Z,13.90
2019-04-06T21:15:41.118Z,14.13
2019-04-06T21:18:09.999Z,13.40
2019-04-06T21:20:38.576Z,14.00
2019-04-06T21:23:07.336Z,14.30
2019-04-06T21:25:36.488Z,14.47
2019-04-06T21:28:05.327Z,14.10
2019-04-06T21:30:33.844Z,13.67
2019-04-06T21:33:02.407Z,15.23
2019-04-06T21:35:31.048Z,14.93
2019-04-06T21:38:00.797Z,14.50
2019-04-06T21:40:29.359Z,13.73
2019-04-06T21:42:57.982Z,14.53
2019-04-06T21:45:26.544Z,14.40
2019-04-06T21:47:55.123Z,13.97
2019-04-06T21:50:24.036Z,14.10
2019-04-06T21:52:52.946Z,13.47
2019-04-06T21:55:21.867Z,14.50
2019-04-06T21:57:50.903Z,14.50
2019-04-06T22:00:24.276Z,14.18
2019-04-06T22:02:52.802Z,13.43
2019-04-06T22:05:21.480Z,14.67
2019-04-06T22:07:53.571Z,13.57
2019-04-06T22:10:20.815Z,13.87
2019-04-06T22:12:49.712Z,14.10
2019-04-06T22:15:18.213Z,13.53
2019-04-06T22:17:46.762Z,13.50
2019-04-06T22:20:15.398Z,15.77
2019-04-06T22:22:44.043Z,15.00
2019-04-06T22:25:12.559Z,13.10
2019-04-06T22:27:41.100Z,13.87
2019-04-06T22:30:11.278Z,12.43
2019-04-06T22:32:40.311Z,13.03
2019-04-06T22:35:09.100Z,14.40
2019-04-06T22:37:37.644Z,14.50
2019-04-06T22:40:07.532Z,13.23
2019-04-06T22:42:36.625Z,13.90
2019-04-06T22:45:08.339Z,12.80
2019-04-06T22:47:37.130Z,12.90
2019-04-06T22:50:08.827Z,14.33
2019-04-06T22:52:37.387Z,13.53
2019-04-06T22:55:07.333Z,14.33
2019-04-06T22:57:36.129Z,14.30
2019-04-06T23:00:08.664Z,14.33
2019-04-06T23:02:55.435Z,13.07
2019-04-06T23:05:25.642Z,13.70
2019-04-06T23:07:54.183Z,14.10
2019-04-06T23:10:22.790Z,14.17
2019-04-06T23:12:51.384Z,15.10
2019-04-06T23:15:20.097Z,13.83
2019-04-06T23:17:48.729Z,15.00
2019-04-06T23:20:17.441Z,15.17
2019-04-06T23:22:46.191Z,15.30
2019-04-06T23:25:15.004Z,15.17
2019-04-06T23:27:43.505Z,14.70
2019-04-06T23:30:12.275Z,15.13
2019-04-06T23:32:41.119Z,13.70
2019-04-06T23:35:10.407Z,14.10
2019-04-06T23:37:39.189Z,14.53
2019-04-06T23:40:08.018Z,16.27
2019-04-06T23:42:36.651Z,14.50
2019-04-06T23:45:07.009Z,15.30
2019-04-06T23:47:36.087Z,15.40
2019-04-06T23:50:06.728Z,14.17
2019-04-06T23:52:35.448Z,15.70
2019-04-06T23:55:05.155Z,15.77
2019-04-06T23:57:33.663Z,14.67
